Terminal Aerodrome Forecast
Issued by NWS New Orleans/Baton Rouge, LA

Home | Current Version | Previous Version | Text Only | Print | Product List | Glossary On
Versions: 1 2 3 4 5 6 7 8 9 10 11 12 13 14 15 16 17 18 19 20 21
000
FTUS44 KLIX 031120
TAFNEW
TAF
KNEW 031120Z 0312/0412 01013KT 5SM BR OVC005
     FM031500 01009KT P6SM BKN015
     FM031700 35007KT P6SM BKN040
     FM032300 33008KT P6SM SCT080
     FM040200 35013KT P6SM SCT120=

USA.gov is the U.S. government's official web portal to all federal, state and local government web resources and services.